OTBD/DOH METAR and TAF weather

Enter ICAO airport designator
Station Type Date Time Source
OTBD METAR 2022/01/25 04:00 UTC NOAA

OTBD 250400Z AUTO 22003KT 170V250 CAVOK 15/07 Q1019 NOSIG


Station Type Date Time Source
OTBD Decoded METAR 2022/01/25 04:00 UTC NOAA

Doha International Airport, Qatar (OTBD) 25-15N 051-34E 10M
Jan 24, 2022 - 11:00 PM EST / 2022.01.25 0400 UTC
Wind: from the SW (220 degrees) at 3 MPH (3 KT) (direction variable):0
Visibility: greater than 7 mile(s):0
Temperature: 59 F (15 C)
Dew Point: 44 F (7 C)
Relative Humidity: 58%
Pressure (altimeter): 30.09 in. Hg (1019 hPa)
ob: OTBD 250400Z AUTO 22003KT 170V250 CAVOK 15/07 Q1019 NOSIG
cycle: 4

Station Type Date Time Source
OTBD TAF 2022/01/24 18:03 UTC NOAA

TAF TAF OTBD 241700Z 2418/2524 21003KT CAVOK
TEMPO 2418/2508 VRB03KT PROB30
TEMPO 2500/2504 5000 HZ

Example: see airport list